Time;durP1;ratioP1;P1;durP2;ratioP2;P2;SDS_P1;SDS_P2;PMS_P1;PMS_P2;Temp;Humidity;BMP_temperature;BMP_pressure;BME280_temperature;BME280_humidity;BME280_pressure;Samples;Min_cycle;Max_cycle;Signal;HPM_P1;HPM_P2
2024/02/11 00:02:24;;;;;;;;;;;19.20;68.60;;;;;;5021677;28;1204;-69
2024/02/11 00:04:50;;;;;;;;;;;19.20;68.80;;;;;;5021143;28;1522;-69
2024/02/11 00:07:15;;;;;;;;;;;19.20;69.10;;;;;;5020210;28;1679;-69
2024/02/11 00:09:41;;;;;;;;;;;19.10;69.30;;;;;;5022969;28;1579;-69
2024/02/11 00:12:08;;;;;;;;;;;19.10;69.60;;;;;;5022325;28;983;-69
2024/02/11 00:14:33;;;;;;;;;;;19.10;69.90;;;;;;5020664;28;1196;-69
2024/02/11 00:16:59;;;;;;;;;;;19.10;70.10;;;;;;5020899;28;1335;-69
2024/02/11 00:19:26;;;;;;;;;;;19.10;70.40;;;;;;5022861;28;1930;-69
2024/02/11 00:21:51;;;;;;;;;;;19.10;70.50;;;;;;5021466;28;1581;-69
2024/02/11 00:24:19;;;;;;;;;;;19.00;70.60;;;;;;5028224;28;1610;-69
2024/02/11 00:26:45;;;;;;;;;;;19.00;70.90;;;;;;5021480;28;1241;-69
2024/02/11 00:29:10;;;;;;;;;;;19.00;71.00;;;;;;5012459;28;1378;-69
2024/02/11 00:31:38;;;;;;;;;;;19.00;71.10;;;;;;5022137;28;1247;-69
2024/02/11 00:34:04;;;;;;;;;;;19.00;71.40;;;;;;5021241;28;1231;-69
2024/02/11 00:36:30;;;;;;;;;;;19.00;71.90;;;;;;5021608;28;1249;-69
2024/02/11 00:38:55;;;;;;;;;;;19.00;72.00;;;;;;5020626;28;1895;-69
2024/02/11 00:41:21;;;;;;;;;;;19.10;72.30;;;;;;5023318;28;1409;-69
2024/02/11 00:43:50;;;;;;;;;;;19.10;72.30;;;;;;5021942;28;1441;-69
2024/02/11 00:46:16;;;;;;;;;;;19.00;72.20;;;;;;5024178;28;1562;-69
2024/02/11 00:48:42;;;;;;;;;;;19.00;72.10;;;;;;5019639;28;1308;-69
2024/02/11 00:51:10;;;;;;;;;;;19.00;71.90;;;;;;5021669;28;1496;-69
2024/02/11 00:53:36;;;;;;;;;;;19.00;72.00;;;;;;5021805;28;1428;-69
2024/02/11 00:56:02;;;;;;;;;;;19.00;71.80;;;;;;5020602;28;1867;-69
2024/02/11 00:58:27;;;;;;;;;;;19.00;71.80;;;;;;5022042;28;1882;-68
2024/02/11 01:00:53;;;;;;;;;;;19.00;71.70;;;;;;5028553;28;1656;-68
2024/02/11 01:03:18;;;;;;;;;;;19.00;71.70;;;;;;5021719;28;1433;-69
2024/02/11 01:05:44;;;;;;;;;;;19.00;72.30;;;;;;5021761;28;1464;-69
2024/02/11 01:08:12;;;;;;;;;;;19.00;71.40;;;;;;5024221;28;1639;-69
2024/02/11 01:10:38;;;;;;;;;;;19.00;71.20;;;;;;5020977;28;1500;-69
2024/02/11 01:13:04;;;;;;;;;;;19.10;71.40;;;;;;5020757;28;1285;-69
2024/02/11 01:15:29;;;;;;;;;;;19.10;71.20;;;;;;5019962;28;1295;-69
2024/02/11 01:17:55;;;;;;;;;;;19.10;71.10;;;;;;5018244;28;1910;-68
2024/02/11 01:20:21;;;;;;;;;;;19.10;70.90;;;;;;5018331;28;934;-69
2024/02/11 01:22:47;;;;;;;;;;;19.10;71.00;;;;;;5018007;28;1431;-68
2024/02/11 01:25:22;;;;;;;;;;;19.10;71.00;;;;;;5020090;28;875;-69
2024/02/11 01:27:47;;;;;;;;;;;19.10;71.10;;;;;;5020061;28;1464;-69
2024/02/11 01:30:13;;;;;;;;;;;19.10;71.10;;;;;;5019264;28;1635;-69
2024/02/11 01:32:39;;;;;;;;;;;19.00;71.00;;;;;;5020688;28;1564;-69
2024/02/11 01:35:07;;;;;;;;;;;19.00;71.00;;;;;;5019890;28;1242;-69
2024/02/11 01:37:33;;;;;;;;;;;19.00;71.10;;;;;;5018544;28;1890;-69
2024/02/11 01:39:58;;;;;;;;;;;19.10;71.00;;;;;;5020247;28;1396;-69
2024/02/11 01:42:24;;;;;;;;;;;19.10;70.90;;;;;;5022193;28;1746;-69
2024/02/11 01:44:49;;;;;;;;;;;19.00;70.80;;;;;;5017658;28;1520;-69
2024/02/11 01:47:15;;;;;;;;;;;19.00;70.80;;;;;;5022591;28;1658;-69
2024/02/11 01:49:41;;;;;;;;;;;19.00;70.90;;;;;;5019949;28;1606;-69
2024/02/11 01:52:06;;;;;;;;;;;19.00;71.00;;;;;;5018119;28;1448;-69
2024/02/11 01:54:32;;;;;;;;;;;19.00;71.10;;;;;;5020532;28;1340;-69
2024/02/11 01:56:57;;;;;;;;;;;19.00;71.10;;;;;;5020091;28;1382;-69
2024/02/11 01:59:23;;;;;;;;;;;19.00;71.30;;;;;;5020369;28;1906;-69
2024/02/11 02:01:49;;;;;;;;;;;19.00;71.40;;;;;;5019509;28;860;-69
2024/02/11 02:04:14;;;;;;;;;;;19.00;71.50;;;;;;5018809;28;1232;-69
2024/02/11 02:06:40;;;;;;;;;;;19.00;71.60;;;;;;5017527;28;1483;-69
2024/02/11 02:09:10;;;;;;;;;;;19.00;71.70;;;;;;5019111;28;1362;-69
2024/02/11 02:11:35;;;;;;;;;;;18.90;71.90;;;;;;5018988;28;883;-69
2024/02/11 02:14:01;;;;;;;;;;;18.90;72.00;;;;;;5019776;28;1716;-69
2024/02/11 02:16:26;;;;;;;;;;;18.90;72.10;;;;;;5021342;28;1477;-69
2024/02/11 02:18:53;;;;;;;;;;;19.00;72.40;;;;;;5018807;28;1938;-69
2024/02/11 02:21:19;;;;;;;;;;;19.00;72.70;;;;;;5017605;28;1471;-69
2024/02/11 02:23:45;;;;;;;;;;;19.00;72.80;;;;;;5019085;28;1262;-69
2024/02/11 02:26:10;;;;;;;;;;;18.90;72.80;;;;;;5018416;28;1348;-68
2024/02/11 02:28:36;;;;;;;;;;;19.00;73.00;;;;;;5017962;28;1375;-68
2024/02/11 02:31:03;;;;;;;;;;;19.00;72.90;;;;;;5017766;28;1451;-70
2024/02/11 02:33:28;;;;;;;;;;;19.00;72.90;;;;;;5019923;28;1645;-69
2024/02/11 02:35:54;;;;;;;;;;;18.90;72.90;;;;;;5021251;28;1687;-69
2024/02/11 02:38:19;;;;;;;;;;;18.90;72.90;;;;;;5019552;28;1938;-69
2024/02/11 02:40:45;;;;;;;;;;;18.90;73.10;;;;;;5019695;28;1475;-69
2024/02/11 02:43:11;;;;;;;;;;;18.90;73.10;;;;;;5018201;28;1581;-69
2024/02/11 02:45:39;;;;;;;;;;;18.90;73.10;;;;;;5018533;28;1478;-69
2024/02/11 02:48:06;;;;;;;;;;;19.00;73.10;;;;;;5018448;28;1317;-69
2024/02/11 02:50:31;;;;;;;;;;;19.00;73.20;;;;;;5018178;28;1585;-69
2024/02/11 02:52:56;;;;;;;;;;;19.00;71.90;;;;;;5017935;28;1313;-68
2024/02/11 02:55:22;;;;;;;;;;;18.90;71.20;;;;;;5019547;28;1363;-69
2024/02/11 02:57:47;;;;;;;;;;;18.90;71.00;;;;;;5018717;28;1886;-69
2024/02/11 03:00:14;;;;;;;;;;;18.80;70.70;;;;;;5017081;28;1658;-69
2024/02/11 03:02:40;;;;;;;;;;;18.80;70.80;;;;;;5018966;28;1514;-69
2024/02/11 03:05:05;;;;;;;;;;;18.80;70.70;;;;;;5019356;28;1448;-70
2024/02/11 03:07:31;;;;;;;;;;;18.70;70.50;;;;;;5020320;28;1453;-71
2024/02/11 03:10:00;;;;;;;;;;;18.70;70.50;;;;;;5017366;28;1635;-70
2024/02/11 03:12:26;;;;;;;;;;;18.70;70.40;;;;;;5017755;28;1239;-68
2024/02/11 03:14:51;;;;;;;;;;;18.60;70.40;;;;;;5020574;28;1530;-68
2024/02/11 03:17:17;;;;;;;;;;;18.70;70.40;;;;;;5022145;28;1570;-68
2024/02/11 03:19:43;;;;;;;;;;;18.60;70.30;;;;;;5015171;28;1906;-67
2024/02/11 03:22:12;;;;;;;;;;;18.60;70.10;;;;;;5017650;28;1316;-69
2024/02/11 03:24:38;;;;;;;;;;;18.60;69.90;;;;;;5019499;28;1478;-69
2024/02/11 03:27:04;;;;;;;;;;;18.60;69.90;;;;;;5019592;28;1383;-69
2024/02/11 03:29:29;;;;;;;;;;;18.60;69.90;;;;;;5018202;28;1512;-68
2024/02/11 03:31:55;;;;;;;;;;;18.50;69.80;;;;;;5017387;28;1538;-69
2024/02/11 03:34:21;;;;;;;;;;;18.50;69.90;;;;;;5021049;28;1356;-69
2024/02/11 03:36:46;;;;;;;;;;;18.50;69.80;;;;;;5024162;28;1247;-70
2024/02/11 03:39:12;;;;;;;;;;;18.50;69.80;;;;;;5022241;28;1906;-68
2024/02/11 03:41:38;;;;;;;;;;;18.50;69.80;;;;;;5024040;28;1468;-71
2024/02/11 03:44:04;;;;;;;;;;;18.50;69.80;;;;;;5023734;28;1501;-70
2024/02/11 03:46:30;;;;;;;;;;;18.50;69.80;;;;;;5025530;28;1580;-71
2024/02/11 03:48:58;;;;;;;;;;;18.50;69.70;;;;;;5024560;28;1313;-71
2024/02/11 03:51:24;;;;;;;;;;;18.40;69.70;;;;;;5026164;28;915;-69
2024/02/11 03:53:50;;;;;;;;;;;18.40;69.70;;;;;;5021490;28;1339;-70
2024/02/11 03:56:18;;;;;;;;;;;18.40;69.70;;;;;;5015117;28;1395;-70
2024/02/11 03:58:43;;;;;;;;;;;18.40;69.70;;;;;;5031226;28;1938;-69
2024/02/11 04:01:09;;;;;;;;;;;18.40;69.60;;;;;;5019895;28;1265;-70
2024/02/11 04:03:39;;;;;;;;;;;18.40;69.60;;;;;;5021876;28;1241;-71
2024/02/11 04:06:04;;;;;;;;;;;18.40;69.60;;;;;;5023071;28;1609;-71
2024/02/11 04:08:30;;;;;;;;;;;18.40;69.60;;;;;;5028525;28;1323;-70
2024/02/11 04:10:56;;;;;;;;;;;18.40;69.60;;;;;;5025684;28;1185;-71
2024/02/11 04:13:26;;;;;;;;;;;18.40;69.60;;;;;;5027910;28;1395;-71
2024/02/11 04:15:56;;;;;;;;;;;18.40;69.60;;;;;;5028925;28;1175;-71
2024/02/11 04:18:23;;;;;;;;;;;18.30;69.50;;;;;;5027539;28;1945;-71
2024/02/11 04:20:48;;;;;;;;;;;18.30;69.50;;;;;;5027035;28;995;-71
2024/02/11 04:23:14;;;;;;;;;;;18.30;69.50;;;;;;5023974;28;1384;-71
2024/02/11 04:25:41;;;;;;;;;;;18.30;69.50;;;;;;5028838;28;1364;-71
2024/02/11 04:28:09;;;;;;;;;;;18.30;69.50;;;;;;5023452;28;1395;-68
2024/02/11 04:30:37;;;;;;;;;;;18.30;69.50;;;;;;5018385;28;1283;-69
2024/02/11 04:33:02;;;;;;;;;;;18.30;69.50;;;;;;5024889;28;1329;-69
2024/02/11 04:35:28;;;;;;;;;;;18.30;69.50;;;;;;5028015;28;1550;-69
2024/02/11 04:37:53;;;;;;;;;;;18.30;69.50;;;;;;5023734;28;1898;-69
2024/02/11 04:40:19;;;;;;;;;;;18.30;69.50;;;;;;5022339;28;1374;-70
2024/02/11 04:42:45;;;;;;;;;;;18.30;69.50;;;;;;5022195;28;1119;-69
2024/02/11 04:45:15;;;;;;;;;;;18.30;69.50;;;;;;5019433;28;1656;-69
2024/02/11 04:47:45;;;;;;;;;;;18.30;69.50;;;;;;5021177;28;1622;-70
2024/02/11 04:50:11;;;;;;;;;;;18.30;69.50;;;;;;5021764;28;1516;-69
2024/02/11 04:52:40;;;;;;;;;;;18.30;69.50;;;;;;5020949;28;1302;-69
2024/02/11 04:55:06;;;;;;;;;;;18.30;69.40;;;;;;5019870;28;1942;-69
2024/02/11 04:57:38;;;;;;;;;;;18.30;69.50;;;;;;5022888;28;1902;-69
2024/02/11 05:00:23;;;;;;;;;;;18.30;69.50;;;;;;5019369;28;1472;-69
2024/02/11 05:02:52;;;;;;;;;;;18.30;69.40;;;;;;5018856;28;1138;-69
2024/02/11 05:05:19;;;;;;;;;;;18.30;69.40;;;;;;5019819;28;1331;-68
2024/02/11 05:07:44;;;;;;;;;;;18.30;69.40;;;;;;5021535;28;1327;-69
2024/02/11 05:10:13;;;;;;;;;;;18.20;69.40;;;;;;5021018;28;1352;-69
2024/02/11 05:12:38;;;;;;;;;;;18.30;69.40;;;;;;5020054;28;1295;-69
2024/02/11 05:15:04;;;;;;;;;;;18.20;69.30;;;;;;5022083;28;1604;-69
2024/02/11 05:17:30;;;;;;;;;;;18.20;69.20;;;;;;5020887;28;1922;-69
2024/02/11 05:19:55;;;;;;;;;;;18.30;69.20;;;;;;5019692;28;1452;-69
2024/02/11 05:22:25;;;;;;;;;;;18.30;69.00;;;;;;5021810;28;1264;-69
2024/02/11 05:24:52;;;;;;;;;;;18.30;69.00;;;;;;5021948;28;1461;-69
2024/02/11 05:27:18;;;;;;;;;;;18.40;68.90;;;;;;5020763;28;1324;-69
2024/02/11 05:29:44;;;;;;;;;;;18.40;68.80;;;;;;5021184;28;1286;-69
2024/02/11 05:32:11;;;;;;;;;;;18.40;68.60;;;;;;5018496;28;1529;-69
2024/02/11 05:34:38;;;;;;;;;;;18.40;68.50;;;;;;5017724;28;1437;-68
2024/02/11 05:37:07;;;;;;;;;;;18.40;68.30;;;;;;5020483;28;1410;-69
2024/02/11 05:39:37;;;;;;;;;;;18.50;68.30;;;;;;5020664;28;1961;-69
2024/02/11 05:42:09;;;;;;;;;;;18.50;68.20;;;;;;5021804;28;1397;-69
2024/02/11 05:44:35;;;;;;;;;;;18.50;68.10;;;;;;5019654;28;1348;-68
2024/02/11 05:47:00;;;;;;;;;;;18.50;68.40;;;;;;5021561;28;1678;-69
2024/02/11 05:49:26;;;;;;;;;;;18.50;67.80;;;;;;5017096;28;1371;-69
2024/02/11 05:51:52;;;;;;;;;;;18.50;67.80;;;;;;5021739;28;1170;-69
2024/02/11 05:54:18;;;;;;;;;;;18.60;67.70;;;;;;5020555;28;1478;-69
2024/02/11 05:56:48;;;;;;;;;;;18.60;67.70;;;;;;5018058;28;1487;-69
2024/02/11 05:59:14;;;;;;;;;;;18.60;67.70;;;;;;5017319;28;1902;-69
2024/02/11 06:01:40;;;;;;;;;;;18.60;67.60;;;;;;5027706;28;1278;-69
2024/02/11 06:04:05;;;;;;;;;;;18.60;67.50;;;;;;5017257;28;1491;-69
2024/02/11 06:06:31;;;;;;;;;;;18.60;67.50;;;;;;5020347;28;1488;-69
2024/02/11 06:08:57;;;;;;;;;;;18.60;67.40;;;;;;5021191;28;1575;-69
2024/02/11 06:11:25;;;;;;;;;;;18.60;67.40;;;;;;5017637;28;1467;-69
2024/02/11 06:13:51;;;;;;;;;;;18.60;67.40;;;;;;5019326;28;1312;-69
2024/02/11 06:16:16;;;;;;;;;;;18.70;67.40;;;;;;5016568;28;1351;-69
2024/02/11 06:18:43;;;;;;;;;;;18.60;67.30;;;;;;5018974;28;2010;-68
2024/02/11 06:21:09;;;;;;;;;;;18.60;67.30;;;;;;5018417;28;1054;-69
2024/02/11 06:23:36;;;;;;;;;;;18.70;67.30;;;;;;5018373;28;942;-69
2024/02/11 06:26:02;;;;;;;;;;;18.70;67.20;;;;;;5019984;28;1639;-69
2024/02/11 06:28:28;;;;;;;;;;;18.70;67.20;;;;;;5020455;28;1379;-69
2024/02/11 06:30:54;;;;;;;;;;;18.70;67.20;;;;;;5019222;28;1377;-69
2024/02/11 06:33:19;;;;;;;;;;;18.70;67.20;;;;;;5019925;28;1456;-69
2024/02/11 06:35:45;;;;;;;;;;;18.70;67.20;;;;;;5019656;28;1544;-69
2024/02/11 06:38:12;;;;;;;;;;;18.70;67.20;;;;;;5017242;28;1902;-70
2024/02/11 06:40:39;;;;;;;;;;;18.70;67.10;;;;;;5016614;28;1239;-69
2024/02/11 06:43:11;;;;;;;;;;;18.60;67.10;;;;;;5023116;28;1432;-69
2024/02/11 06:45:40;;;;;;;;;;;18.70;67.10;;;;;;5019047;28;1454;-68
2024/02/11 06:48:08;;;;;;;;;;;18.70;67.10;;;;;;5019604;28;1700;-70
2024/02/11 06:50:33;;;;;;;;;;;18.70;67.10;;;;;;5020215;28;1555;-69
2024/02/11 06:52:59;;;;;;;;;;;18.70;67.10;;;;;;5016649;28;1544;-68
2024/02/11 06:55:25;;;;;;;;;;;18.60;67.00;;;;;;5020802;28;1241;-70
2024/02/11 06:57:51;;;;;;;;;;;18.70;67.10;;;;;;5019317;28;1926;-68
2024/02/11 07:00:18;;;;;;;;;;;18.60;67.00;;;;;;5019759;28;1546;-68
2024/02/11 07:02:47;;;;;;;;;;;18.60;67.00;;;;;;5018295;28;1425;-68
2024/02/11 07:05:15;;;;;;;;;;;18.60;67.00;;;;;;5018749;28;1111;-68
2024/02/11 07:07:44;;;;;;;;;;;18.60;67.00;;;;;;5017275;28;1313;-69
2024/02/11 07:10:09;;;;;;;;;;;18.60;67.00;;;;;;5019010;28;1245;-69
2024/02/11 07:12:35;;;;;;;;;;;18.60;67.00;;;;;;5020105;28;1272;-70
2024/02/11 07:15:02;;;;;;;;;;;18.60;67.10;;;;;;5018871;28;1544;-68
2024/02/11 07:17:30;;;;;;;;;;;18.60;67.10;;;;;;5019649;28;1465;-68
2024/02/11 07:19:55;;;;;;;;;;;18.60;67.10;;;;;;5018175;28;1906;-70
2024/02/11 07:22:21;;;;;;;;;;;18.60;67.10;;;;;;5019627;28;1489;-70
2024/02/11 07:24:47;;;;;;;;;;;18.60;67.10;;;;;;5020512;28;1388;-70
2024/02/11 07:27:14;;;;;;;;;;;18.60;67.10;;;;;;5017981;28;1437;-68
2024/02/11 07:29:42;;;;;;;;;;;18.60;67.10;;;;;;5017565;28;1653;-71
2024/02/11 07:32:08;;;;;;;;;;;18.50;67.10;;;;;;5019595;28;1470;-69
2024/02/11 07:34:34;;;;;;;;;;;18.50;67.10;;;;;;5017026;28;1363;-71
2024/02/11 07:37:02;;;;;;;;;;;18.60;67.10;;;;;;5019718;28;1526;-74
2024/02/11 07:39:28;;;;;;;;;;;18.50;65.60;;;;;;5015541;28;1973;-70
2024/02/11 07:41:58;;;;;;;;;;;18.50;64.40;;;;;;5020457;28;1679;-70
2024/02/11 07:44:23;;;;;;;;;;;18.50;64.10;;;;;;5020457;28;2018;-69
2024/02/11 07:46:49;;;;;;;;;;;18.50;63.80;;;;;;5022440;28;2008;-69
2024/02/11 07:49:15;;;;;;;;;;;18.50;63.70;;;;;;5018370;28;1391;-70
2024/02/11 07:51:44;;;;;;;;;;;18.50;63.20;;;;;;5021651;28;1267;-68
2024/02/11 07:54:12;;;;;;;;;;;18.50;63.00;;;;;;5021834;28;1203;-69
2024/02/11 07:56:38;;;;;;;;;;;18.40;62.80;;;;;;5007388;28;1239;-69
2024/02/11 07:59:04;;;;;;;;;;;18.40;62.70;;;;;;5022295;28;1989;-69
2024/02/11 08:01:33;;;;;;;;;;;18.40;62.40;;;;;;5019767;28;1322;-68
2024/02/11 08:03:59;;;;;;;;;;;18.40;62.20;;;;;;5020368;28;1310;-68
2024/02/11 08:06:25;;;;;;;;;;;18.40;62.10;;;;;;5021382;28;2109;-68
2024/02/11 08:08:51;;;;;;;;;;;18.40;62.10;;;;;;5022505;28;1403;-69
2024/02/11 08:11:18;;;;;;;;;;;18.40;62.50;;;;;;5021059;28;1581;-69
2024/02/11 08:13:43;;;;;;;;;;;18.40;61.70;;;;;;5022101;28;1262;-69
2024/02/11 08:16:11;;;;;;;;;;;18.40;61.60;;;;;;5022508;28;1509;-68
2024/02/11 08:18:37;;;;;;;;;;;18.40;61.50;;;;;;5022521;28;1910;-68
2024/02/11 08:21:04;;;;;;;;;;;18.40;61.50;;;;;;5021501;28;1628;-68
2024/02/11 08:23:30;;;;;;;;;;;18.40;61.40;;;;;;5020697;28;1485;-68
2024/02/11 08:25:55;;;;;;;;;;;18.40;61.40;;;;;;5022839;28;1475;-69
2024/02/11 08:28:21;;;;;;;;;;;18.30;61.10;;;;;;5027846;28;1589;-68
2024/02/11 08:30:46;;;;;;;;;;;18.30;61.10;;;;;;5022966;28;1214;-68
2024/02/11 08:33:12;;;;;;;;;;;18.30;61.10;;;;;;5019775;28;1508;-68
2024/02/11 08:35:37;;;;;;;;;;;18.30;61.10;;;;;;5021313;28;1493;-68
2024/02/11 08:38:04;;;;;;;;;;;18.30;61.00;;;;;;5022450;28;1961;-68
2024/02/11 08:40:30;;;;;;;;;;;18.20;60.80;;;;;;5020960;28;1256;-68
2024/02/11 08:42:56;;;;;;;;;;;18.20;60.80;;;;;;5020345;28;1326;-67
2024/02/11 08:45:21;;;;;;;;;;;18.20;61.60;;;;;;5021917;28;1536;-70
2024/02/11 08:47:47;;;;;;;;;;;18.30;60.90;;;;;;5024727;28;1521;-68
2024/02/11 08:50:14;;;;;;;;;;;18.30;60.70;;;;;;5018585;28;1347;-67
2024/02/11 08:52:40;;;;;;;;;;;18.20;60.70;;;;;;5019623;28;1437;-68
2024/02/11 08:55:05;;;;;;;;;;;18.30;60.70;;;;;;5021103;28;1240;-70
2024/02/11 08:57:31;;;;;;;;;;;18.20;60.50;;;;;;5021483;28;1509;-69
2024/02/11 08:59:56;;;;;;;;;;;18.30;60.50;;;;;;5021768;28;2638;-68
2024/02/11 09:02:26;;;;;;;;;;;18.30;60.40;;;;;;5020173;28;1516;-68
2024/02/11 09:04:53;;;;;;;;;;;18.30;60.30;;;;;;5018812;28;1425;-69
2024/02/11 09:07:22;;;;;;;;;;;18.30;60.10;;;;;;5018136;28;955;-68
2024/02/11 09:09:50;;;;;;;;;;;18.30;60.00;;;;;;5021826;28;1456;-67
2024/02/11 09:12:16;;;;;;;;;;;18.30;60.00;;;;;;5021965;28;1516;-69
2024/02/11 09:14:42;;;;;;;;;;;18.30;59.90;;;;;;5020711;28;1291;-68
2024/02/11 09:17:07;;;;;;;;;;;18.30;60.00;;;;;;5029329;28;1749;-67
2024/02/11 09:19:33;;;;;;;;;;;18.30;59.80;;;;;;5021159;28;1983;-68
2024/02/11 09:21:58;;;;;;;;;;;18.30;59.80;;;;;;5019481;28;1167;-68
2024/02/11 09:24:25;;;;;;;;;;;18.30;59.70;;;;;;5019301;28;1317;-68
2024/02/11 09:26:51;;;;;;;;;;;18.30;59.70;;;;;;5021464;28;1279;-69
2024/02/11 09:29:16;;;;;;;;;;;18.30;59.60;;;;;;5021359;28;1347;-68
2024/02/11 09:31:42;;;;;;;;;;;18.30;59.60;;;;;;5020174;28;1509;-67
2024/02/11 09:34:07;;;;;;;;;;;18.30;59.60;;;;;;5021335;28;1700;-68
2024/02/11 09:36:33;;;;;;;;;;;18.30;59.60;;;;;;5019077;28;1339;-68
2024/02/11 09:38:59;;;;;;;;;;;18.30;59.60;;;;;;5019158;28;1969;-68
2024/02/11 09:41:24;;;;;;;;;;;18.30;59.60;;;;;;5017646;28;1504;-67
2024/02/11 09:43:50;;;;;;;;;;;18.30;59.60;;;;;;5018881;28;1544;-68
2024/02/11 09:46:18;;;;;;;;;;;18.30;59.60;;;;;;5021548;28;1335;-70
2024/02/11 09:48:48;;;;;;;;;;;18.30;59.60;;;;;;5014282;28;1313;-70
2024/02/11 09:51:14;;;;;;;;;;;18.30;59.60;;;;;;5018446;28;1536;-70
2024/02/11 09:53:40;;;;;;;;;;;18.30;59.50;;;;;;5026646;28;1101;-69
2024/02/11 09:56:06;;;;;;;;;;;18.30;59.50;;;;;;5018945;28;907;-70
2024/02/11 09:58:32;;;;;;;;;;;18.30;59.50;;;;;;5018640;28;1915;-69
2024/02/11 10:00:58;;;;;;;;;;;18.30;59.60;;;;;;5021543;28;1428;-68
2024/02/11 10:03:24;;;;;;;;;;;18.30;59.50;;;;;;5022387;28;1470;-69
2024/02/11 10:05:50;;;;;;;;;;;18.30;59.50;;;;;;5026580;28;1468;-70
2024/02/11 10:08:15;;;;;;;;;;;18.30;59.50;;;;;;5019284;28;1241;-70
2024/02/11 10:10:42;;;;;;;;;;;18.30;59.40;;;;;;5021896;28;1018;-70
2024/02/11 10:13:08;;;;;;;;;;;18.30;59.40;;;;;;5019385;28;1458;-70
2024/02/11 10:15:38;;;;;;;;;;;18.30;59.30;;;;;;5020217;28;1224;-69
2024/02/11 10:18:06;;;;;;;;;;;18.30;59.40;;;;;;5018536;28;1977;-68
2024/02/11 10:20:31;;;;;;;;;;;18.30;59.30;;;;;;5018052;28;899;-68
2024/02/11 10:22:57;;;;;;;;;;;18.30;59.40;;;;;;5020342;28;1128;-68
2024/02/11 10:25:23;;;;;;;;;;;18.30;59.30;;;;;;5015990;28;1291;-67
2024/02/11 10:27:48;;;;;;;;;;;18.30;59.30;;;;;;5020056;28;1150;-68
2024/02/11 10:30:14;;;;;;;;;;;18.30;59.20;;;;;;5018869;28;1371;-68
2024/02/11 10:32:39;;;;;;;;;;;18.30;59.20;;;;;;5022475;28;1323;-67
2024/02/11 10:35:05;;;;;;;;;;;18.30;59.20;;;;;;5017717;28;1547;-68
2024/02/11 10:37:38;;;;;;;;;;;18.30;59.20;;;;;;5021003;28;1175;-68
2024/02/11 10:40:05;;;;;;;;;;;18.30;59.10;;;;;;5019383;28;1894;-69
2024/02/11 10:42:31;;;;;;;;;;;18.30;59.20;;;;;;5017401;28;1620;-68
2024/02/11 10:44:57;;;;;;;;;;;18.30;59.10;;;;;;5026413;28;1545;-68
2024/02/11 10:47:23;;;;;;;;;;;18.30;59.10;;;;;;5018326;28;1525;-67
2024/02/11 10:49:48;;;;;;;;;;;18.30;59.10;;;;;;5018354;28;1450;-68
2024/02/11 10:52:13;;;;;;;;;;;18.30;59.00;;;;;;5020284;28;1450;-68
2024/02/11 10:54:42;;;;;;;;;;;18.30;59.00;;;;;;5020540;28;1529;-68
2024/02/11 10:57:12;;;;;;;;;;;18.30;58.90;;;;;;5019310;28;1383;-67
2024/02/11 10:59:41;;;;;;;;;;;18.40;59.00;;;;;;5026406;28;1899;-68
2024/02/11 11:02:07;;;;;;;;;;;18.30;58.90;;;;;;5018185;28;1461;-68
2024/02/11 11:04:32;;;;;;;;;;;18.30;58.90;;;;;;5018691;28;1494;-68
2024/02/11 11:06:58;;;;;;;;;;;18.30;58.90;;;;;;5025511;28;1585;-67
2024/02/11 11:09:23;;;;;;;;;;;18.30;58.80;;;;;;5023054;28;1362;-68
2024/02/11 11:11:49;;;;;;;;;;;18.30;58.80;;;;;;5019725;28;1594;-67
2024/02/11 11:14:14;;;;;;;;;;;18.30;58.90;;;;;;5018258;28;1117;-67
2024/02/11 11:16:43;;;;;;;;;;;18.30;58.80;;;;;;5027209;28;1651;-67
2024/02/11 11:19:14;;;;;;;;;;;18.30;58.80;;;;;;5024175;28;1981;-69
2024/02/11 11:21:50;;;;;;;;;;;18.30;58.80;;;;;;5022823;28;2163;-67
2024/02/11 11:24:16;;;;;;;;;;;18.30;58.80;;;;;;5023063;28;1261;-68
2024/02/11 11:26:51;;;;;;;;;;;18.30;58.90;;;;;;5023801;28;947;-67
2024/02/11 11:29:17;;;;;;;;;;;18.30;58.80;;;;;;5012940;28;1433;-68
2024/02/11 11:31:44;;;;;;;;;;;18.30;58.90;;;;;;5024130;28;1640;-68
2024/02/11 11:34:10;;;;;;;;;;;18.30;58.80;;;;;;5021758;28;1168;-69
2024/02/11 11:36:37;;;;;;;;;;;18.30;58.80;;;;;;5022816;28;994;-69
2024/02/11 11:39:14;;;;;;;;;;;18.30;58.80;;;;;;5009811;28;1971;-68
2024/02/11 11:41:39;;;;;;;;;;;18.30;58.80;;;;;;5022349;28;1262;-67
2024/02/11 11:44:05;;;;;;;;;;;18.30;58.80;;;;;;5021437;28;1371;-68
2024/02/11 11:46:31;;;;;;;;;;;18.30;58.70;;;;;;5021816;28;1456;-68
2024/02/11 11:48:57;;;;;;;;;;;18.30;58.80;;;;;;5018909;28;1417;-68
2024/02/11 11:51:23;;;;;;;;;;;18.30;58.70;;;;;;5020340;28;1258;-69
2024/02/11 11:53:49;;;;;;;;;;;18.30;58.60;;;;;;5023670;28;1505;-69
2024/02/11 11:56:16;;;;;;;;;;;18.30;58.80;;;;;;5023304;28;1470;-69
2024/02/11 11:58:43;;;;;;;;;;;18.30;58.80;;;;;;5024025;28;1963;-68
2024/02/11 12:01:08;;;;;;;;;;;18.30;58.80;;;;;;5023178;28;1353;-68
2024/02/11 12:03:34;;;;;;;;;;;18.30;58.90;;;;;;5005281;28;1570;-68
2024/02/11 12:06:00;;;;;;;;;;;18.30;59.00;;;;;;5029932;28;1459;-66
2024/02/11 12:08:25;;;;;;;;;;;18.30;59.20;;;;;;5023465;28;1326;-67
2024/02/11 12:10:57;;;;;;;;;;;18.30;59.20;;;;;;5023466;28;1609;-67
2024/02/11 12:13:23;;;;;;;;;;;18.30;59.40;;;;;;5021803;28;1523;-67
2024/02/11 12:15:49;;;;;;;;;;;18.30;59.50;;;;;;5020546;28;1681;-68
2024/02/11 12:18:17;;;;;;;;;;;18.30;59.60;;;;;;5019143;28;1964;-68
2024/02/11 12:20:43;;;;;;;;;;;18.30;59.70;;;;;;5020242;28;1280;-68
2024/02/11 12:23:09;;;;;;;;;;;18.30;59.70;;;;;;5028666;28;1489;-67
2024/02/11 12:25:35;;;;;;;;;;;18.30;59.90;;;;;;5021345;28;1329;-68
2024/02/11 12:28:02;;;;;;;;;;;18.30;59.90;;;;;;5022131;28;1371;-66
2024/02/11 12:30:27;;;;;;;;;;;18.30;60.00;;;;;;5019203;28;1393;-69
2024/02/11 12:32:53;;;;;;;;;;;18.30;60.10;;;;;;5023224;28;4540;-66
2024/02/11 12:35:34;;;;;;;;;;;18.30;60.20;;;;;;5021903;28;1463;-70
2024/02/11 12:38:00;;;;;;;;;;;18.30;60.30;;;;;;5021987;28;1902;-68
2024/02/11 12:40:25;;;;;;;;;;;18.30;60.40;;;;;;5021915;28;1706;-66
2024/02/11 12:43:00;;;;;;;;;;;18.30;60.50;;;;;;5022727;28;1433;-67
2024/02/11 12:45:26;;;;;;;;;;;18.30;60.60;;;;;;5021344;28;1569;-67
2024/02/11 12:47:51;;;;;;;;;;;18.30;60.70;;;;;;5028814;28;1476;-70
2024/02/11 12:50:22;;;;;;;;;;;18.30;60.80;;;;;;5010898;28;1308;-68
2024/02/11 12:52:48;;;;;;;;;;;18.30;60.90;;;;;;5021821;28;1160;-69
2024/02/11 12:55:14;;;;;;;;;;;18.20;60.90;;;;;;5020333;28;1432;-69
2024/02/11 12:57:39;;;;;;;;;;;18.20;61.00;;;;;;5021693;28;1530;-67
2024/02/11 13:00:06;;;;;;;;;;;18.20;61.10;;;;;;5020269;28;1981;-67
2024/02/11 13:02:31;;;;;;;;;;;18.30;61.30;;;;;;5019747;28;1528;-67
2024/02/11 13:04:57;;;;;;;;;;;18.20;61.30;;;;;;5017714;28;1491;-68
2024/02/11 13:07:23;;;;;;;;;;;18.20;62.20;;;;;;5017999;28;1185;-68
2024/02/11 13:09:49;;;;;;;;;;;18.20;61.50;;;;;;5019900;28;1430;-69
2024/02/11 13:12:14;;;;;;;;;;;18.20;61.50;;;;;;5022924;28;1652;-69
2024/02/11 13:14:40;;;;;;;;;;;18.20;61.60;;;;;;5021391;28;1628;-67
2024/02/11 13:17:06;;;;;;;;;;;18.20;61.60;;;;;;5019914;28;1034;-68
2024/02/11 13:19:32;;;;;;;;;;;18.20;61.70;;;;;;5020356;28;1910;-68
2024/02/11 13:21:59;;;;;;;;;;;18.30;61.70;;;;;;5022763;28;1082;-68
2024/02/11 13:24:26;;;;;;;;;;;18.20;61.70;;;;;;5019660;28;1310;-69
2024/02/11 13:26:52;;;;;;;;;;;18.20;61.80;;;;;;5016415;28;1517;-67
2024/02/11 13:29:17;;;;;;;;;;;18.20;61.80;;;;;;5020405;28;1284;-69
2024/02/11 13:31:44;;;;;;;;;;;18.20;61.80;;;;;;5017694;28;882;-68
2024/02/11 13:34:10;;;;;;;;;;;18.20;61.90;;;;;;5020702;28;1437;-67
2024/02/11 13:36:35;;;;;;;;;;;18.30;62.00;;;;;;5018482;28;1436;-68
2024/02/11 13:39:02;;;;;;;;;;;18.30;62.00;;;;;;5021112;28;1899;-69
2024/02/11 13:41:28;;;;;;;;;;;18.20;62.00;;;;;;5019450;28;1511;-68
2024/02/11 13:43:53;;;;;;;;;;;18.30;62.00;;;;;;5022068;28;1322;-68
2024/02/11 13:46:19;;;;;;;;;;;18.20;62.00;;;;;;5024243;28;865;-68
2024/02/11 13:48:45;;;;;;;;;;;18.20;62.00;;;;;;5019659;28;1522;-69
2024/02/11 13:51:11;;;;;;;;;;;18.20;62.10;;;;;;5020949;28;1378;-67
2024/02/11 13:53:39;;;;;;;;;;;18.20;62.10;;;;;;5019798;28;1417;-67
2024/02/11 13:56:05;;;;;;;;;;;18.30;62.10;;;;;;5019777;28;1551;-67
2024/02/11 13:58:31;;;;;;;;;;;18.20;62.10;;;;;;5027038;28;1980;-68
2024/02/11 14:00:58;;;;;;;;;;;18.20;62.10;;;;;;5019183;28;1482;-68
2024/02/11 14:03:24;;;;;;;;;;;18.30;62.20;;;;;;5019227;28;1463;-70
2024/02/11 14:05:49;;;;;;;;;;;18.30;62.20;;;;;;5010570;28;1175;-67
2024/02/11 14:08:16;;;;;;;;;;;18.20;62.90;;;;;;5020183;28;1560;-68
2024/02/11 14:10:44;;;;;;;;;;;18.30;62.20;;;;;;5018915;28;1489;-70
2024/02/11 14:13:09;;;;;;;;;;;18.20;62.20;;;;;;5021152;28;1477;-68
2024/02/11 14:15:36;;;;;;;;;;;18.30;63.00;;;;;;5018778;28;1484;-67
2024/02/11 14:18:01;;;;;;;;;;;18.20;62.20;;;;;;5020407;28;1906;-68
2024/02/11 14:20:27;;;;;;;;;;;18.30;62.30;;;;;;5015718;28;1457;-67
2024/02/11 14:22:52;;;;;;;;;;;18.30;62.40;;;;;;5019566;28;1635;-68
2024/02/11 14:25:18;;;;;;;;;;;18.30;62.40;;;;;;5018845;28;1997;-68
2024/02/11 14:27:45;;;;;;;;;;;18.30;62.40;;;;;;5021248;28;1398;-68